createdAt,value
2019-02-20T00:01:11.400Z,17.45
2019-02-20T00:03:16.130Z,24.50
2019-02-20T00:05:19.960Z,18.82
2019-02-20T00:07:23.789Z,18.50
2019-02-20T00:09:27.954Z,20.45
2019-02-20T00:11:31.772Z,25.92
2019-02-20T00:13:35.946Z,19.32
2019-02-20T00:15:40.160Z,22.70
2019-02-20T00:17:49.194Z,26.20
2019-02-20T00:19:55.260Z,23.65
2019-02-20T00:21:59.483Z,21.35
2019-02-20T00:24:03.667Z,27.55
2019-02-20T00:26:07.780Z,28.05
2019-02-20T00:28:11.892Z,22.42
2019-02-20T00:30:16.000Z,19.98
2019-02-20T00:32:19.824Z,20.30
2019-02-20T00:34:25.964Z,18.60
2019-02-20T00:36:33.149Z,25.05
2019-02-20T00:38:37.250Z,21.17
2019-02-20T00:40:41.090Z,23.20
2019-02-20T00:42:44.925Z,22.17
2019-02-20T00:44:50.440Z,25.30
2019-02-20T00:47:08.124Z,20.40
2019-02-20T00:49:13.873Z,23.70
2019-02-20T00:51:19.650Z,22.55
2019-02-20T00:53:25.494Z,25.37
2019-02-20T00:55:29.696Z,21.60
2019-02-20T00:57:33.810Z,19.07
2019-02-20T00:59:38.024Z,22.95
2019-02-20T01:01:42.137Z,19.85
2019-02-20T01:03:46.255Z,20.62
2019-02-20T01:05:50.638Z,17.60
2019-02-20T01:07:54.763Z,23.07
2019-02-20T01:09:58.878Z,20.80
2019-02-20T01:12:03.092Z,23.83
2019-02-20T01:14:06.924Z,21.70
2019-02-20T01:16:10.742Z,20.52
2019-02-20T01:18:14.910Z,26.62
2019-02-20T01:20:18.722Z,22.73
2019-02-20T01:22:22.930Z,26.00
2019-02-20T01:24:27.151Z,21.52
2019-02-20T01:26:31.245Z,22.73
2019-02-20T01:28:35.363Z,24.85
2019-02-20T01:30:39.574Z,25.32
2019-02-20T01:32:43.669Z,25.12
2019-02-20T01:34:47.501Z,24.30
2019-02-20T01:36:51.695Z,26.62
2019-02-20T01:38:55.808Z,28.73
2019-02-20T01:40:59.911Z,25.25
2019-02-20T01:43:05.626Z,28.95
2019-02-20T01:45:13.262Z,25.37
2019-02-20T01:47:17.385Z,26.10
2019-02-20T01:49:21.582Z,23.07
2019-02-20T01:51:25.779Z,23.27
2019-02-20T01:53:29.994Z,22.05
2019-02-20T01:55:34.133Z,21.27
2019-02-20T01:57:37.960Z,17.77
2019-02-20T01:59:42.139Z,18.77
2019-02-20T02:01:45.959Z,28.40
2019-02-20T02:03:50.152Z,22.15
2019-02-20T02:05:54.360Z,22.50
2019-02-20T02:07:58.461Z,25.32
2019-02-20T02:10:02.725Z,23.70
2019-02-20T02:12:06.891Z,28.32
2019-02-20T02:14:10.725Z,27.85
2019-02-20T02:16:14.918Z,24.32
2019-02-20T02:18:20.713Z,24.25
2019-02-20T02:20:24.545Z,26.17
2019-02-20T02:22:28.683Z,23.77
2019-02-20T02:24:32.878Z,33.78
2019-02-20T02:26:36.988Z,27.60
2019-02-20T02:28:40.807Z,32.15
2019-02-20T02:30:45.029Z,29.52
2019-02-20T02:32:49.228Z,25.65
2019-02-20T02:34:53.359Z,29.92
2019-02-20T02:36:57.539Z,28.42
2019-02-20T02:39:01.663Z,24.07
2019-02-20T02:41:05.798Z,22.02
2019-02-20T02:43:09.976Z,20.08
2019-02-20T02:45:16.807Z,24.35
2019-02-20T02:47:20.646Z,26.55
2019-02-20T02:49:24.871Z,24.52
2019-02-20T02:51:29.091Z,24.50
2019-02-20T02:53:33.300Z,21.17
2019-02-20T02:55:37.149Z,31.70
2019-02-20T02:57:43.157Z,31.42
2019-02-20T02:59:47.267Z,27.17
2019-02-20T03:01:51.890Z,27.62
2019-02-20T03:03:56.012Z,32.70
2019-02-20T03:06:00.131Z,29.35
2019-02-20T03:08:04.342Z,34.05
2019-02-20T03:10:09.044Z,32.00
2019-02-20T03:12:13.266Z,29.87
2019-02-20T03:14:17.384Z,39.55
2019-02-20T03:16:21.207Z,28.25
2019-02-20T03:18:25.385Z,42.05
2019-02-20T03:20:29.607Z,35.30
2019-02-20T03:22:33.824Z,36.45
2019-02-20T03:24:38.031Z,32.78
2019-02-20T03:26:42.707Z,28.55
2019-02-20T03:28:46.848Z,36.98
2019-02-20T03:30:51.068Z,34.35
2019-02-20T03:32:55.188Z,44.15
2019-02-20T03:34:59.282Z,50.17
2019-02-20T03:37:06.710Z,41.80
2019-02-20T03:39:10.525Z,42.40
2019-02-20T03:41:14.695Z,43.28
2019-02-20T03:43:19.128Z,40.58
2019-02-20T03:45:22.951Z,43.15
2019-02-20T03:47:27.145Z,41.88
2019-02-20T03:49:30.946Z,47.58
2019-02-20T03:51:34.775Z,45.05
2019-02-20T03:53:38.941Z,51.45
2019-02-20T03:55:44.551Z,39.78
2019-02-20T03:57:48.797Z,34.40
2019-02-20T03:59:54.112Z,40.00
2019-02-20T04:01:58.130Z,49.90
2019-02-20T04:04:02.203Z,36.83
2019-02-20T04:06:06.364Z,43.55
2019-02-20T04:08:10.477Z,40.88
2019-02-20T04:10:14.703Z,40.52
2019-02-20T04:12:18.905Z,33.40
2019-02-20T04:14:22.814Z,44.10
2019-02-20T04:16:27.178Z,55.33
2019-02-20T04:18:31.345Z,52.70
2019-02-20T04:20:36.597Z,51.18
2019-02-20T04:22:41.401Z,43.25
2019-02-20T04:24:45.608Z,37.65
2019-02-20T04:26:49.833Z,37.40
2019-02-20T04:28:53.950Z,41.08
2019-02-20T04:30:58.138Z,52.25
2019-02-20T04:33:02.248Z,50.03
2019-02-20T04:35:07.305Z,54.90
2019-02-20T04:37:11.512Z,53.25
2019-02-20T04:39:15.351Z,44.40
2019-02-20T04:41:19.516Z,40.78
2019-02-20T04:43:23.630Z,59.30
2019-02-20T04:45:27.788Z,45.67
2019-02-20T04:47:31.944Z,54.48
2019-02-20T04:49:36.157Z,48.05
2019-02-20T04:51:40.270Z,52.65
2019-02-20T04:53:44.384Z,51.65
2019-02-20T04:55:48.604Z,62.73
2019-02-20T04:58:18.990Z,56.37
2019-02-20T05:00:23.638Z,45.65
2019-02-20T05:02:27.653Z,74.05
2019-02-20T05:04:32.278Z,79.35
2019-02-20T05:06:36.501Z,53.65
2019-02-20T05:08:40.587Z,78.55
2019-02-20T05:10:44.480Z,64.62
2019-02-20T05:12:48.626Z,77.82
2019-02-20T05:14:54.556Z,77.42
2019-02-20T05:16:58.521Z,82.70
2019-02-20T05:19:02.373Z,88.35
2019-02-20T05:21:06.508Z,73.22
2019-02-20T05:23:10.709Z,80.00
2019-02-20T05:25:14.526Z,82.57
2019-02-20T05:27:18.614Z,76.65
2019-02-20T05:29:22.832Z,78.22
2019-02-20T05:31:29.717Z,95.35
2019-02-20T05:33:33.908Z,70.00
2019-02-20T05:35:38.130Z,64.67
2019-02-20T05:37:42.227Z,71.67
2019-02-20T05:39:46.377Z,62.90
2019-02-20T05:41:50.550Z,70.40
2019-02-20T05:43:54.447Z,74.65
2019-02-20T05:45:58.791Z,118.93
2019-02-20T05:48:02.652Z,97.05
2019-02-20T05:50:07.991Z,96.02
2019-02-20T05:52:12.142Z,68.10
2019-02-20T05:54:16.048Z,54.05
2019-02-20T05:56:19.925Z,61.15
2019-02-20T05:58:24.074Z,59.10
2019-02-20T06:00:28.272Z,72.65
2019-02-20T06:02:32.078Z,54.95
2019-02-20T06:04:36.280Z,54.60
2019-02-20T06:06:41.302Z,60.65
2019-02-20T06:08:47.536Z,74.03
2019-02-20T06:10:51.364Z,72.35
2019-02-20T06:12:55.304Z,73.05
2019-02-20T06:14:59.120Z,72.37
2019-02-20T06:17:02.968Z,77.50
2019-02-20T06:19:07.090Z,69.55
2019-02-20T06:21:10.921Z,74.62
2019-02-20T06:23:15.137Z,74.03
2019-02-20T06:25:19.329Z,57.85
2019-02-20T06:27:23.160Z,63.38
2019-02-20T06:29:27.346Z,64.60
2019-02-20T06:31:31.439Z,54.08
2019-02-20T06:33:35.566Z,67.78
2019-02-20T06:35:39.778Z,54.73
2019-02-20T06:37:43.887Z,59.23
2019-02-20T06:39:47.721Z,68.97
2019-02-20T06:41:51.911Z,61.75
2019-02-20T06:43:56.120Z,59.35
2019-02-20T06:46:00.232Z,56.10
2019-02-20T06:48:04.344Z,72.00
2019-02-20T06:50:09.067Z,67.37
2019-02-20T06:52:13.276Z,69.90
2019-02-20T06:54:17.506Z,60.20
2019-02-20T06:56:21.684Z,59.83
2019-02-20T06:58:25.512Z,55.10
2019-02-20T07:00:29.364Z,59.15
2019-02-20T07:02:33.508Z,71.30
2019-02-20T07:04:37.626Z,70.67
2019-02-20T07:06:48.270Z,70.03
2019-02-20T07:09:17.892Z,64.27
2019-02-20T07:11:37.349Z,74.10
2019-02-20T07:13:56.596Z,60.03
2019-02-20T07:16:15.902Z,67.40
2019-02-20T07:18:31.391Z,68.15
2019-02-20T07:20:53.827Z,62.17
2019-02-20T07:23:20.828Z,75.80
2019-02-20T07:25:39.070Z,65.22
2019-02-20T07:28:02.368Z,63.45
2019-02-20T07:30:08.487Z,58.75
2019-02-20T07:32:17.253Z,79.12
2019-02-20T07:34:21.459Z,70.62
2019-02-20T07:36:25.359Z,128.13
2019-02-20T07:38:29.208Z,95.87
2019-02-20T07:40:33.386Z,88.58
2019-02-20T07:42:37.591Z,72.85
2019-02-20T07:44:41.446Z,75.65
2019-02-20T07:46:45.601Z,66.10
2019-02-20T07:48:49.724Z,53.05
2019-02-20T07:50:53.916Z,54.00
2019-02-20T07:52:58.531Z,59.25
2019-02-20T07:55:12.557Z,60.52
2019-02-20T07:57:08.509Z,57.05
2019-02-20T07:59:12.329Z,53.13
2019-02-20T08:01:17.323Z,51.98
2019-02-20T08:03:21.554Z,49.77
2019-02-20T08:05:25.590Z,49.50
2019-02-20T08:07:29.668Z,48.65
2019-02-20T08:09:33.512Z,45.73
2019-02-20T08:11:37.692Z,42.20
2019-02-20T08:13:41.795Z,41.42
2019-02-20T08:15:46.022Z,44.40
2019-02-20T08:17:52.163Z,36.95
2019-02-20T08:19:56.275Z,44.93
2019-02-20T08:22:00.228Z,41.25
2019-02-20T08:24:04.404Z,35.58
2019-02-20T08:26:08.226Z,37.15
2019-02-20T08:28:12.076Z,42.15
2019-02-20T08:30:16.226Z,37.53
2019-02-20T08:32:20.153Z,31.95
2019-02-20T08:34:24.337Z,35.00
2019-02-20T08:36:28.444Z,33.65
2019-02-20T08:38:32.264Z,30.95
2019-02-20T08:40:36.453Z,40.03
2019-02-20T08:42:42.719Z,40.60
2019-02-20T08:44:46.838Z,42.93
2019-02-20T08:46:53.509Z,33.35
2019-02-20T08:48:57.355Z,36.98
2019-02-20T08:51:01.527Z,33.33
2019-02-20T08:53:05.719Z,32.45
2019-02-20T08:55:10.946Z,32.67
2019-02-20T08:57:15.081Z,41.35
2019-02-20T08:59:19.295Z,37.50
2019-02-20T09:01:23.509Z,32.98
2019-02-20T09:03:27.719Z,37.85
2019-02-20T09:05:34.123Z,34.38
2019-02-20T09:07:39.838Z,35.38
2019-02-20T09:09:44.033Z,37.48
2019-02-20T09:11:47.861Z,39.15
2019-02-20T09:13:53.893Z,34.63
2019-02-20T09:15:58.111Z,35.95
2019-02-20T09:18:05.289Z,31.10
2019-02-20T09:20:11.238Z,44.08
2019-02-20T09:22:15.458Z,31.05
2019-02-20T09:24:19.568Z,34.70
2019-02-20T09:26:23.783Z,34.75
2019-02-20T09:28:27.997Z,36.40
2019-02-20T09:30:34.886Z,34.55
2019-02-20T09:32:39.088Z,32.13
2019-02-20T09:34:45.585Z,32.10
2019-02-20T09:36:51.707Z,32.95
2019-02-20T09:38:55.813Z,32.90
2019-02-20T09:41:00.024Z,31.27
2019-02-20T09:43:04.148Z,32.60
2019-02-20T09:45:09.466Z,32.38
2019-02-20T09:47:13.579Z,31.40
2019-02-20T09:49:17.797Z,29.80
2019-02-20T09:51:22.013Z,32.35
2019-02-20T09:53:26.129Z,28.95
2019-02-20T09:55:33.612Z,29.90
2019-02-20T09:57:39.879Z,33.28
2019-02-20T09:59:45.831Z,30.32
2019-02-20T10:01:50.036Z,32.05
2019-02-20T10:03:54.257Z,27.30
2019-02-20T10:05:58.080Z,28.00
2019-02-20T10:08:02.275Z,31.12
2019-02-20T10:10:09.065Z,35.65
2019-02-20T10:12:12.891Z,33.10
2019-02-20T10:14:17.048Z,29.50
2019-02-20T10:16:20.927Z,29.63
2019-02-20T10:18:24.756Z,34.08
2019-02-20T10:20:28.976Z,27.42
2019-02-20T10:22:33.197Z,28.57
2019-02-20T10:24:37.013Z,26.40
2019-02-20T10:26:41.201Z,23.15
2019-02-20T10:28:45.035Z,23.73
2019-02-20T10:30:48.851Z,22.42
2019-02-20T10:32:52.708Z,20.23
2019-02-20T10:34:56.637Z,21.80
2019-02-20T10:37:00.177Z,22.37
2019-02-20T10:39:05.556Z,21.43
2019-02-20T10:41:09.110Z,21.37
2019-02-20T10:43:12.642Z,24.73
2019-02-20T10:45:16.559Z,23.27
2019-02-20T10:47:22.218Z,21.57
2019-02-20T10:49:26.113Z,20.07
2019-02-20T10:51:30.001Z,19.93
2019-02-20T10:53:33.545Z,19.30
2019-02-20T10:55:37.416Z,22.20
2019-02-20T10:57:41.310Z,19.90
2019-02-20T10:59:45.229Z,18.20
2019-02-20T11:01:49.123Z,18.60
2019-02-20T11:03:53.020Z,17.47
2019-02-20T11:05:56.566Z,19.90
2019-02-20T11:08:00.428Z,19.87
2019-02-20T11:10:05.283Z,25.27
2019-02-20T11:12:11.025Z,19.00
2019-02-20T11:14:14.917Z,15.07
2019-02-20T11:16:18.471Z,19.70
2019-02-20T11:18:22.325Z,19.20
2019-02-20T11:20:26.219Z,13.30
2019-02-20T11:22:32.152Z,16.30
2019-02-20T11:24:35.656Z,15.33
2019-02-20T11:26:50.234Z,13.93
2019-02-20T11:28:45.113Z,10.30
2019-02-20T11:30:51.325Z,12.80
2019-02-20T11:32:55.178Z,11.47
2019-02-20T11:35:00.494Z,13.00
2019-02-20T11:37:04.224Z,14.60
2019-02-20T11:39:07.829Z,11.67
2019-02-20T11:41:11.375Z,9.47
2019-02-20T11:43:16.320Z,8.60
2019-02-20T11:45:22.720Z,12.00
2019-02-20T11:47:26.520Z,14.73
2019-02-20T11:49:30.412Z,20.07
2019-02-20T11:51:33.946Z,26.73
2019-02-20T11:53:37.812Z,10.73
2019-02-20T11:55:41.330Z,7.83
2019-02-20T11:57:45.222Z,7.50
2019-02-20T11:59:48.764Z,9.10
2019-02-20T12:01:52.724Z,8.53
2019-02-20T12:03:56.525Z,14.70
2019-02-20T12:06:00.442Z,20.77
2019-02-20T12:08:04.346Z,6.27
2019-02-20T12:10:12.666Z,20.73
2019-02-20T12:12:16.546Z,11.00
2019-02-20T12:14:23.999Z,13.50
2019-02-20T12:16:27.287Z,7.33
2019-02-20T12:18:31.011Z,5.60
2019-02-20T12:20:34.824Z,11.80
2019-02-20T12:22:38.740Z,4.97
2019-02-20T12:24:42.550Z,4.70
2019-02-20T12:26:46.439Z,6.30
2019-02-20T12:28:49.993Z,11.47
2019-02-20T12:30:54.355Z,7.60
2019-02-20T12:32:58.897Z,7.33
2019-02-20T12:35:02.428Z,6.47
2019-02-20T12:37:06.397Z,11.47
2019-02-20T12:39:10.710Z,11.50
2019-02-20T12:41:14.243Z,7.00
2019-02-20T12:43:18.108Z,14.00
2019-02-20T12:45:21.727Z,8.20
2019-02-20T12:47:25.620Z,8.10
2019-02-20T12:49:31.068Z,5.43
2019-02-20T12:51:34.956Z,11.17
2019-02-20T12:53:38.850Z,8.47
2019-02-20T12:55:42.386Z,9.17
2019-02-20T12:57:46.252Z,9.43
2019-02-20T12:59:50.176Z,7.60
2019-02-20T13:01:53.698Z,10.80
2019-02-20T13:03:57.232Z,8.40
2019-02-20T13:06:01.165Z,8.30
2019-02-20T13:08:05.792Z,9.33
2019-02-20T13:10:10.309Z,10.07
2019-02-20T13:12:14.334Z,11.47
2019-02-20T13:14:18.213Z,9.93
2019-02-20T13:16:22.074Z,12.33
2019-02-20T13:18:25.920Z,9.77
2019-02-20T13:20:29.733Z,8.93
2019-02-20T13:22:33.527Z,9.50
2019-02-20T13:24:37.429Z,9.33
2019-02-20T13:26:41.338Z,12.17
2019-02-20T13:28:45.275Z,10.53
2019-02-20T13:30:48.804Z,9.47
2019-02-20T13:32:52.643Z,8.10
2019-02-20T13:34:56.659Z,10.27
2019-02-20T13:37:00.675Z,7.33
2019-02-20T13:39:05.850Z,9.57
2019-02-20T13:41:09.525Z,8.23
2019-02-20T13:43:13.416Z,8.27
2019-02-20T13:45:16.946Z,9.07
2019-02-20T13:47:20.561Z,9.57
2019-02-20T13:49:25.789Z,6.67
2019-02-20T13:51:29.746Z,7.47
2019-02-20T13:53:33.759Z,9.10
2019-02-20T13:55:37.563Z,9.60
2019-02-20T13:57:41.088Z,7.83
2019-02-20T13:59:44.627Z,7.50
2019-02-20T14:01:48.560Z,10.90
2019-02-20T14:03:53.342Z,6.43
2019-02-20T14:05:57.230Z,11.13
2019-02-20T14:08:01.222Z,9.30
2019-02-20T14:10:10.829Z,8.57
2019-02-20T14:12:14.736Z,6.57
2019-02-20T14:14:18.566Z,6.30
2019-02-20T14:16:22.450Z,7.43
2019-02-20T14:18:27.894Z,8.07
2019-02-20T14:20:31.482Z,7.53
2019-02-20T14:22:35.010Z,7.80
2019-02-20T14:24:38.890Z,8.97
2019-02-20T14:26:42.685Z,8.37
2019-02-20T14:28:46.500Z,9.03
2019-02-20T14:30:50.042Z,9.13
2019-02-20T14:32:53.574Z,8.50
2019-02-20T14:34:57.802Z,9.00
2019-02-20T14:37:02.909Z,10.63
2019-02-20T14:39:06.841Z,7.63
2019-02-20T14:41:10.848Z,9.60
2019-02-20T14:43:14.764Z,10.10
2019-02-20T14:45:18.872Z,11.17
2019-02-20T14:47:22.772Z,11.47
2019-02-20T14:49:26.301Z,8.13
2019-02-20T14:51:30.227Z,26.70
2019-02-20T14:53:34.081Z,11.60
2019-02-20T14:55:37.894Z,22.37
2019-02-20T14:57:41.778Z,10.57
2019-02-20T14:59:45.699Z,13.37
2019-02-20T15:01:49.224Z,11.03
2019-02-20T15:03:53.122Z,7.93
2019-02-20T15:05:56.990Z,10.30
2019-02-20T15:08:02.134Z,22.60
2019-02-20T15:10:08.430Z,8.67
2019-02-20T15:12:11.983Z,19.40
2019-02-20T15:14:16.249Z,14.50
2019-02-20T15:16:19.840Z,11.97
2019-02-20T15:18:23.822Z,18.23
2019-02-20T15:20:27.727Z,13.20
2019-02-20T15:22:31.248Z,9.73
2019-02-20T15:24:36.762Z,7.03
2019-02-20T15:26:40.290Z,16.83
2019-02-20T15:28:44.170Z,28.43
2019-02-20T15:30:48.060Z,10.90
2019-02-20T15:32:54.244Z,9.60
2019-02-20T15:34:57.762Z,9.63
2019-02-20T15:37:01.729Z,9.07
2019-02-20T15:39:05.694Z,8.17
2019-02-20T15:41:11.178Z,8.30
2019-02-20T15:43:14.735Z,10.93
2019-02-20T15:45:18.284Z,10.33
2019-02-20T15:47:22.162Z,9.97
2019-02-20T15:49:26.098Z,16.83
2019-02-20T15:51:29.673Z,10.40
2019-02-20T15:53:33.242Z,8.43
2019-02-20T15:55:37.591Z,11.70
2019-02-20T15:57:41.498Z,8.13
2019-02-20T15:59:45.240Z,11.77
2019-02-20T16:01:49.200Z,12.43
2019-02-20T16:03:53.114Z,10.80
2019-02-20T16:05:57.305Z,9.47
2019-02-20T16:08:00.830Z,8.03
2019-02-20T16:10:07.276Z,11.87
2019-02-20T16:12:11.192Z,11.77
2019-02-20T16:14:14.726Z,9.87
2019-02-20T16:16:18.912Z,11.60
2019-02-20T16:18:22.912Z,14.23
2019-02-20T16:20:26.822Z,10.77
2019-02-20T16:22:30.343Z,13.40
2019-02-20T16:24:34.237Z,8.90
2019-02-20T16:26:38.429Z,10.23
2019-02-20T16:28:41.955Z,9.37
2019-02-20T16:30:45.505Z,10.20
2019-02-20T16:32:51.182Z,10.27
2019-02-20T16:34:54.960Z,8.63
2019-02-20T16:36:58.504Z,10.23
2019-02-20T16:39:02.060Z,8.93
2019-02-20T16:41:05.849Z,8.67
2019-02-20T16:43:09.674Z,10.57
2019-02-20T16:45:21.443Z,10.43
2019-02-20T16:47:25.354Z,8.57
2019-02-20T16:49:29.295Z,9.33
2019-02-20T16:51:33.479Z,10.58
2019-02-20T16:53:37.369Z,9.80
2019-02-20T16:55:41.251Z,9.33
2019-02-20T16:57:45.401Z,10.13
2019-02-20T16:59:49.621Z,8.13
2019-02-20T17:01:53.441Z,8.58
2019-02-20T17:03:57.525Z,9.68
2019-02-20T17:06:01.840Z,10.38
2019-02-20T17:08:06.050Z,7.97
2019-02-20T17:10:12.054Z,9.73
2019-02-20T17:12:16.221Z,10.35
2019-02-20T17:14:20.465Z,7.53
2019-02-20T17:16:24.283Z,10.53
2019-02-20T17:18:28.457Z,7.70
2019-02-20T17:20:34.011Z,9.20
2019-02-20T17:22:38.189Z,9.78
2019-02-20T17:24:42.113Z,7.47
2019-02-20T17:26:45.965Z,10.48
2019-02-20T17:28:50.123Z,10.72
2019-02-20T17:30:54.341Z,7.65
2019-02-20T17:32:58.557Z,7.67
2019-02-20T17:35:02.515Z,9.88
2019-02-20T17:37:06.679Z,7.55
2019-02-20T17:39:10.897Z,9.58
2019-02-20T17:41:14.965Z,10.48
2019-02-20T17:43:19.109Z,8.68
2019-02-20T17:45:23.314Z,9.98
2019-02-20T17:47:27.338Z,13.43
2019-02-20T17:49:31.529Z,9.80
2019-02-20T17:51:35.652Z,10.28
2019-02-20T17:53:39.884Z,10.68
2019-02-20T17:55:43.727Z,11.22
2019-02-20T17:57:47.861Z,11.08
2019-02-20T17:59:51.987Z,11.10
2019-02-20T18:01:55.872Z,9.48
2019-02-20T18:03:59.696Z,10.55
2019-02-20T18:06:05.640Z,12.23
2019-02-20T18:08:09.857Z,10.78
2019-02-20T18:10:14.699Z,13.03
2019-02-20T18:12:18.908Z,12.18
2019-02-20T18:14:22.782Z,13.95
2019-02-20T18:16:26.927Z,14.23
2019-02-20T18:18:31.042Z,12.82
2019-02-20T18:20:34.889Z,16.97
2019-02-20T18:22:39.067Z,14.38
2019-02-20T18:24:43.242Z,13.62
2019-02-20T18:26:47.475Z,14.90
2019-02-20T18:28:53.346Z,14.60
2019-02-20T18:30:57.183Z,15.90
2019-02-20T18:33:01.378Z,15.78
2019-02-20T18:35:08.376Z,16.17
2019-02-20T18:37:12.520Z,18.95
2019-02-20T18:39:16.746Z,17.25
2019-02-20T18:41:20.592Z,18.67
2019-02-20T18:43:24.407Z,20.75
2019-02-20T18:45:28.330Z,20.50
2019-02-20T18:47:32.236Z,19.00
2019-02-20T18:49:36.117Z,22.48
2019-02-20T18:51:40.060Z,20.68
2019-02-20T18:53:45.018Z,18.82
2019-02-20T18:55:49.316Z,21.20
2019-02-20T18:57:53.202Z,25.68
2019-02-20T18:59:57.042Z,23.50
2019-02-20T19:02:00.873Z,25.52
2019-02-20T19:04:07.767Z,26.62
2019-02-20T19:06:10.986Z,24.35
2019-02-20T19:08:34.315Z,26.50
2019-02-20T19:10:40.716Z,23.80
2019-02-20T19:12:59.470Z,22.25
2019-02-20T19:15:15.353Z,22.75
2019-02-20T19:17:47.828Z,19.95
2019-02-20T19:20:06.293Z,28.67
2019-02-20T19:22:22.355Z,26.50
2019-02-20T19:24:40.788Z,25.72
2019-02-20T19:26:56.580Z,25.05
2019-02-20T19:29:22.079Z,25.77
2019-02-20T19:31:54.710Z,29.25
2019-02-20T19:34:26.021Z,25.02
2019-02-20T19:36:35.667Z,29.67
2019-02-20T19:39:05.188Z,26.93
2019-02-20T19:41:42.482Z,29.77
2019-02-20T19:43:54.006Z,28.30
2019-02-20T19:46:22.140Z,29.80
2019-02-20T19:48:50.878Z,30.72
2019-02-20T19:51:07.122Z,32.83
2019-02-20T19:53:14.010Z,30.37
2019-02-20T19:55:36.558Z,31.60
2019-02-20T19:58:02.584Z,33.95
2019-02-20T20:00:24.997Z,35.25
2019-02-20T20:02:37.723Z,36.95
2019-02-20T20:05:18.284Z,37.50
2019-02-20T20:07:30.988Z,36.95
2019-02-20T20:09:41.074Z,38.63
2019-02-20T20:11:50.644Z,39.27
2019-02-20T20:14:12.825Z,41.77
2019-02-20T20:16:31.626Z,40.23
2019-02-20T20:19:01.809Z,39.67
2019-02-20T20:21:08.976Z,37.40
2019-02-20T20:23:35.901Z,39.95
2019-02-20T20:25:46.176Z,35.38
2019-02-20T20:28:07.980Z,37.15
2019-02-20T20:30:35.755Z,41.85
2019-02-20T20:33:04.945Z,43.00
2019-02-20T20:35:23.804Z,38.45
2019-02-20T20:37:36.459Z,47.15
2019-02-20T20:39:46.661Z,60.78
2019-02-20T20:42:05.914Z,51.15
2019-02-20T20:44:49.566Z,48.35
2019-02-20T20:46:59.275Z,45.48
2019-02-20T20:49:09.707Z,41.88
2019-02-20T20:51:29.127Z,38.73
2019-02-20T20:54:11.024Z,49.58
2019-02-20T20:56:27.326Z,42.05
2019-02-20T20:58:50.676Z,36.05
2019-02-20T21:01:03.060Z,38.65
2019-02-20T21:03:10.168Z,36.60
2019-02-20T21:05:35.160Z,31.95
2019-02-20T21:07:47.816Z,38.92
2019-02-20T21:10:00.318Z,34.53
2019-02-20T21:12:16.216Z,33.02
2019-02-20T21:14:32.156Z,34.90
2019-02-20T21:16:48.256Z,30.82
2019-02-20T21:19:00.852Z,29.63
2019-02-20T21:21:08.046Z,30.12
2019-02-20T21:23:33.241Z,25.95
2019-02-20T21:25:52.018Z,33.75
2019-02-20T21:28:27.849Z,30.00
2019-02-20T21:31:08.032Z,29.65
2019-02-20T21:33:17.950Z,35.58
2019-02-20T21:35:25.150Z,32.65
2019-02-20T21:37:55.071Z,36.60
2019-02-20T21:40:11.475Z,37.35
2019-02-20T21:42:21.392Z,33.80
2019-02-20T21:44:50.716Z,31.50
2019-02-20T21:47:15.905Z,30.40
2019-02-20T21:49:28.423Z,28.80
2019-02-20T21:51:51.866Z,33.10
2019-02-20T21:54:16.902Z,33.83
2019-02-20T21:56:29.567Z,34.67
2019-02-20T21:58:48.554Z,29.65
2019-02-20T22:01:23.922Z,35.28
2019-02-20T22:03:42.734Z,34.25
2019-02-20T22:05:52.990Z,37.95
2019-02-20T22:08:02.944Z,33.38
2019-02-20T22:10:15.754Z,34.67
2019-02-20T22:12:22.994Z,39.33
2019-02-20T22:14:48.355Z,35.92
2019-02-20T22:17:01.179Z,37.35
2019-02-20T22:19:23.925Z,36.28
2019-02-20T22:21:46.068Z,46.08
2019-02-20T22:23:56.094Z,43.23
2019-02-20T22:26:11.527Z,46.02
2019-02-20T22:28:37.891Z,41.73
2019-02-20T22:30:56.167Z,45.75
2019-02-20T22:33:14.980Z,41.98
2019-02-20T22:35:24.953Z,54.77
2019-02-20T22:38:05.038Z,49.63
2019-02-20T22:40:27.035Z,54.00
2019-02-20T22:42:39.937Z,70.55
2019-02-20T22:44:55.688Z,72.10
2019-02-20T22:47:05.890Z,51.92
2019-02-20T22:49:27.093Z,50.83
2019-02-20T22:52:03.262Z,52.90
2019-02-20T22:54:15.876Z,48.25
2019-02-20T22:56:46.158Z,53.90
2019-02-20T22:58:59.216Z,44.05
2019-02-20T23:01:24.725Z,47.80
2019-02-20T23:03:32.219Z,56.40
2019-02-20T23:05:53.759Z,52.23
2019-02-20T23:08:06.441Z,53.73
2019-02-20T23:49:39.491Z,45.90
2019-02-20T23:51:43.336Z,48.52
2019-02-20T23:53:47.511Z,42.20
2019-02-20T23:55:51.646Z,44.25
2019-02-20T23:57:58.507Z,42.33
